createdAt,value
2023-03-06T00:00:19.805Z,96586.06
2023-03-06T00:02:47.739Z,96579.25
2023-03-06T00:05:15.911Z,96575.69
2023-03-06T00:07:43.858Z,96572.16
2023-03-06T00:10:15.669Z,96572.84
2023-03-06T00:12:44.756Z,96565.09
2023-03-06T00:15:13.604Z,96564.69
2023-03-06T00:17:41.266Z,96563.22
2023-03-06T00:20:11.050Z,96554.88
2023-03-06T00:22:39.467Z,96559.41
2023-03-06T00:25:08.951Z,96564.06
2023-03-06T00:27:36.500Z,96566.63
2023-03-06T00:30:07.023Z,96558.06
2023-03-06T00:32:34.647Z,96559.50
2023-03-06T00:35:02.261Z,96551.31
2023-03-06T00:37:29.849Z,96563.09
2023-03-06T00:39:57.387Z,96563.19
2023-03-06T00:42:25.095Z,96552.09
2023-03-06T00:44:52.793Z,96549.69
2023-03-06T00:47:21.842Z,96554.56
2023-03-06T00:49:50.274Z,96568.53
2023-03-06T00:52:17.864Z,96569.19
2023-03-06T00:54:45.407Z,96570.91
2023-03-06T00:57:13.062Z,96570.63
2023-03-06T00:59:40.647Z,96571.22
2023-03-06T01:02:08.267Z,96565.75
2023-03-06T01:04:37.272Z,96565.63
2023-03-06T01:07:04.995Z,96557.94
2023-03-06T01:09:32.685Z,96552.03
2023-03-06T01:12:00.517Z,96553.66
2023-03-06T01:14:28.126Z,96547.09
2023-03-06T01:16:55.759Z,96543.03
2023-03-06T01:19:23.465Z,96541.66
2023-03-06T01:21:52.441Z,96544.47
2023-03-06T01:24:19.997Z,96541.69
2023-03-06T01:26:47.539Z,96537.72
2023-03-06T01:29:15.127Z,96533.78
2023-03-06T01:31:42.890Z,96528.44
2023-03-06T01:34:10.572Z,96529.19
2023-03-06T01:36:38.162Z,96530.91
2023-03-06T01:39:07.175Z,96526.47
2023-03-06T01:41:35.114Z,96527.25
2023-03-06T01:44:03.101Z,96514.06
2023-03-06T01:46:35.766Z,96507.59
2023-03-06T01:49:08.794Z,96505.34
2023-03-06T01:51:40.743Z,96503.31
2023-03-06T01:54:14.558Z,96486.31
2023-03-06T01:56:47.239Z,96491.34
2023-03-06T01:59:16.228Z,96486.91
2023-03-06T02:01:44.952Z,96495.47
2023-03-06T02:04:13.813Z,96493.94
2023-03-06T02:06:41.943Z,96486.22
2023-03-06T02:09:12.798Z,96489.53
2023-03-06T02:11:40.875Z,96493.31
2023-03-06T02:14:08.583Z,96492.75
2023-03-06T02:16:36.223Z,96486.72
2023-03-06T02:19:16.168Z,96479.78
2023-03-06T02:21:44.059Z,96481.06
2023-03-06T02:24:30.333Z,96481.06
2023-03-06T02:27:00.596Z,96481.81
2023-03-06T02:29:30.065Z,96473.84
2023-03-06T02:31:57.896Z,96474.94
2023-03-06T02:34:54.427Z,96472.72
2023-03-06T02:37:24.000Z,96467.56
2023-03-06T02:39:59.727Z,96465.19
2023-03-06T02:42:29.414Z,96465.25
2023-03-06T02:45:02.140Z,96465.88
2023-03-06T02:47:29.762Z,96455.91
2023-03-06T02:49:57.406Z,96463.13
2023-03-06T02:52:25.063Z,96450.28
2023-03-06T02:54:52.685Z,96452.25
2023-03-06T02:57:20.246Z,96447.91
2023-03-06T02:59:49.146Z,96445.97
2023-03-06T03:02:16.793Z,96443.75
2023-03-06T03:04:44.452Z,96442.78
2023-03-06T03:07:12.080Z,96445.53
2023-03-06T03:09:39.711Z,96444.69
2023-03-06T03:12:08.324Z,96446.09
2023-03-06T03:14:36.147Z,96451.19
2023-03-06T03:17:05.390Z,96457.44
2023-03-06T03:19:33.026Z,96450.72
2023-03-06T03:22:00.855Z,96444.59
2023-03-06T03:24:28.534Z,96447.50
2023-03-06T03:26:56.272Z,96441.69
2023-03-06T03:29:24.749Z,96444.50
2023-03-06T03:31:52.331Z,96442.63
2023-03-06T03:34:21.349Z,96448.50
2023-03-06T03:36:49.263Z,96440.72
2023-03-06T03:39:16.957Z,96447.09
2023-03-06T03:41:44.628Z,96437.22
2023-03-06T03:44:12.568Z,96444.75
2023-03-06T03:46:40.320Z,96447.03
2023-03-06T03:49:08.053Z,96435.81
2023-03-06T03:51:37.073Z,96441.41
2023-03-06T03:54:06.159Z,96435.84
2023-03-06T03:56:35.175Z,96436.19
2023-03-06T03:59:03.069Z,96430.81
2023-03-06T04:01:30.708Z,96422.47
2023-03-06T04:03:59.032Z,96423.78
2023-03-06T04:06:26.821Z,96421.91
2023-03-06T04:08:56.247Z,96428.16
2023-03-06T04:11:23.920Z,96423.19
2023-03-06T04:13:51.668Z,96429.06
2023-03-06T04:16:19.391Z,96420.69
2023-03-06T04:18:47.006Z,96417.72
2023-03-06T04:21:14.822Z,96425.19
2023-03-06T04:23:42.457Z,96428.13
2023-03-06T04:26:11.457Z,96424.47
2023-03-06T04:28:39.128Z,96427.44
2023-03-06T04:31:06.782Z,96426.22
2023-03-06T04:33:34.339Z,96424.16
2023-03-06T04:36:01.965Z,96419.25
2023-03-06T04:38:29.760Z,96419.97
2023-03-06T04:40:57.458Z,96413.78
2023-03-06T04:43:26.443Z,96423.84
2023-03-06T04:45:54.046Z,96417.16
2023-03-06T04:48:21.703Z,96419.00
2023-03-06T04:50:49.350Z,96418.81
2023-03-06T04:53:17.004Z,96416.34
2023-03-06T04:55:44.636Z,96423.28
2023-03-06T04:58:13.963Z,96422.72
2023-03-06T05:00:43.026Z,96415.38
2023-03-06T05:03:12.859Z,96415.63
2023-03-06T05:05:40.564Z,96417.94
2023-03-06T05:08:10.306Z,96418.75
2023-03-06T05:10:37.959Z,96412.25
2023-03-06T05:13:05.863Z,96412.94
2023-03-06T05:15:33.445Z,96413.06
2023-03-06T05:18:03.804Z,96410.91
2023-03-06T05:20:31.431Z,96416.34
2023-03-06T05:22:59.155Z,96419.53
2023-03-06T05:25:26.876Z,96415.19
2023-03-06T05:27:54.547Z,96413.81
2023-03-06T05:30:22.373Z,96419.34
2023-03-06T05:32:50.196Z,96421.50
2023-03-06T05:35:21.572Z,96422.34
2023-03-06T05:37:50.286Z,96432.03
2023-03-06T05:40:18.887Z,96432.28
2023-03-06T05:42:46.438Z,96424.66
2023-03-06T05:45:14.058Z,96431.03
2023-03-06T05:47:41.820Z,96429.75
2023-03-06T05:50:11.214Z,96427.84
2023-03-06T05:52:40.172Z,96429.00
2023-03-06T05:55:12.047Z,96427.75
2023-03-06T05:57:39.780Z,96418.16
2023-03-06T06:00:10.379Z,96424.06
2023-03-06T06:02:38.295Z,96421.19
2023-03-06T06:05:07.069Z,96418.97
2023-03-06T06:07:34.723Z,96425.06
2023-03-06T06:10:04.986Z,96422.78
2023-03-06T06:12:33.153Z,96427.34
2023-03-06T06:15:00.933Z,96424.03
2023-03-06T06:17:28.582Z,96426.88
2023-03-06T06:19:56.278Z,96427.53
2023-03-06T06:22:25.337Z,96424.59
2023-03-06T06:24:53.072Z,96425.00
2023-03-06T06:27:21.962Z,96427.47
2023-03-06T06:29:50.876Z,96424.97
2023-03-06T06:32:18.611Z,96425.41
2023-03-06T06:34:46.219Z,96431.66
2023-03-06T06:37:13.918Z,96423.00
2023-03-06T06:39:41.537Z,96431.72
2023-03-06T06:42:28.895Z,96433.84
2023-03-06T06:44:58.523Z,96433.41
2023-03-06T06:47:26.434Z,96435.84
2023-03-06T06:49:55.949Z,96438.28
2023-03-06T06:52:24.517Z,96438.16
2023-03-06T06:54:52.471Z,96445.00
2023-03-06T06:57:20.104Z,96448.03
2023-03-06T06:59:47.663Z,96443.16
2023-03-06T07:02:16.828Z,96439.66
2023-03-06T07:05:00.696Z,96447.63
2023-03-06T07:07:30.720Z,96448.56
2023-03-06T07:09:58.384Z,96451.72
2023-03-06T07:12:26.016Z,96442.66
2023-03-06T07:14:53.807Z,96445.41
2023-03-06T07:17:22.746Z,96438.28
2023-03-06T07:19:50.603Z,96442.28
2023-03-06T07:22:18.228Z,96443.88
2023-03-06T07:24:45.883Z,96434.03
2023-03-06T07:27:13.551Z,96441.66
2023-03-06T07:29:43.353Z,96441.63
2023-03-06T07:32:11.672Z,96437.53
2023-03-06T07:34:40.670Z,96440.16
2023-03-06T07:37:08.643Z,96444.31
2023-03-06T07:39:36.516Z,96453.69
2023-03-06T07:42:05.019Z,96452.16
2023-03-06T07:44:36.456Z,96448.47
2023-03-06T07:47:04.234Z,96454.88
2023-03-06T07:49:31.906Z,96451.78
2023-03-06T07:52:01.496Z,96451.31
2023-03-06T07:54:29.108Z,96441.19
2023-03-06T07:56:56.957Z,96447.34
2023-03-06T07:59:24.870Z,96445.25
2023-03-06T08:01:54.362Z,96454.00
2023-03-06T08:04:22.093Z,96455.97
2023-03-06T08:06:49.650Z,96451.50
2023-03-06T08:09:18.695Z,96459.94
2023-03-06T08:11:46.396Z,96460.00
2023-03-06T08:14:14.171Z,96467.03
2023-03-06T08:16:42.062Z,96461.41
2023-03-06T08:19:09.917Z,96456.16
2023-03-06T08:21:37.584Z,96460.25
2023-03-06T08:24:06.777Z,96460.78
2023-03-06T08:26:36.551Z,96458.69
2023-03-06T08:29:04.478Z,96457.75
2023-03-06T08:31:35.308Z,96450.13
2023-03-06T08:34:06.056Z,96456.00
2023-03-06T08:36:34.297Z,96465.03
2023-03-06T08:39:02.952Z,96469.47
2023-03-06T08:41:31.270Z,96468.53
2023-03-06T08:44:00.306Z,96468.19
2023-03-06T08:46:30.041Z,96467.75
2023-03-06T08:48:58.680Z,96470.13
2023-03-06T08:51:27.020Z,96474.44
2023-03-06T08:53:55.852Z,96471.13
2023-03-06T08:56:26.532Z,96473.50
2023-03-06T08:58:56.117Z,96470.63
2023-03-06T09:01:27.160Z,96474.34
2023-03-06T09:03:56.927Z,96466.81
2023-03-06T09:06:27.158Z,96464.28
2023-03-06T09:08:55.710Z,96468.34
2023-03-06T09:11:26.737Z,96466.38
2023-03-06T09:13:54.996Z,96459.84
2023-03-06T09:16:25.046Z,96452.34
2023-03-06T09:18:52.913Z,96462.41
2023-03-06T09:21:21.373Z,96461.84
2023-03-06T09:23:49.762Z,96459.22
2023-03-06T09:26:17.459Z,96456.94
2023-03-06T09:28:45.374Z,96462.53
2023-03-06T09:34:17.347Z,96472.50
2023-03-06T09:36:56.771Z,96468.34
2023-03-06T09:39:26.066Z,96470.66
2023-03-06T09:41:55.065Z,96462.66
2023-03-06T09:44:25.961Z,96463.00
2023-03-06T09:47:18.911Z,96465.34
2023-03-06T09:50:06.005Z,96459.22
2023-03-06T09:58:05.969Z,96458.78
2023-03-06T10:00:40.041Z,96453.88
2023-03-06T10:03:22.126Z,96454.63
2023-03-06T10:05:54.961Z,96451.22
2023-03-06T10:08:30.187Z,96456.56
2023-03-06T10:11:00.934Z,96452.31
2023-03-06T10:13:38.418Z,96445.13
2023-03-06T10:16:22.157Z,96440.84
2023-03-06T10:18:50.716Z,96445.94
2023-03-06T10:21:42.267Z,96439.34
2023-03-06T10:24:23.843Z,96435.53
2023-03-06T10:27:00.019Z,96441.03
2023-03-06T10:30:01.272Z,96430.97
2023-03-06T10:32:46.311Z,96435.81
2023-03-06T10:35:21.337Z,96432.91
2023-03-06T10:37:48.969Z,96437.41
2023-03-06T10:40:20.017Z,96428.41
2023-03-06T10:42:47.796Z,96436.63
2023-03-06T10:45:17.831Z,96427.16
2023-03-06T10:47:45.462Z,96428.47
2023-03-06T10:50:25.948Z,96424.13
2023-03-06T10:53:02.345Z,96426.66
2023-03-06T10:55:31.920Z,96422.84
2023-03-06T10:58:18.314Z,96423.53
2023-03-06T11:00:47.660Z,96422.69
2023-03-06T11:03:21.943Z,96423.63
2023-03-06T11:06:01.200Z,96412.34
2023-03-06T11:08:30.497Z,96419.13
2023-03-06T11:11:00.922Z,96418.19
2023-03-06T11:13:31.612Z,96420.41
2023-03-06T11:16:07.291Z,96413.13
2023-03-06T11:18:37.759Z,96403.13
2023-03-06T11:21:25.365Z,96394.47
2023-03-06T11:23:57.634Z,96409.00
2023-03-06T11:26:37.070Z,96411.78
2023-03-06T11:29:50.206Z,96411.75
2023-03-06T11:32:24.561Z,96402.69
2023-03-06T11:34:59.642Z,96398.91
2023-03-06T11:37:43.009Z,96392.19
2023-03-06T11:40:20.527Z,96389.84
2023-03-06T11:42:57.275Z,96394.66
2023-03-06T11:45:30.097Z,96381.19
2023-03-06T11:48:20.584Z,96371.91
2023-03-06T11:50:50.499Z,96372.34
2023-03-06T11:53:22.384Z,96365.94
2023-03-06T11:56:02.211Z,96366.31
2023-03-06T11:58:56.102Z,96364.09
2023-03-06T12:01:30.509Z,96362.53
2023-03-06T12:04:25.707Z,96348.47
2023-03-06T12:07:07.547Z,96354.56
2023-03-06T12:09:46.422Z,96339.34
2023-03-06T12:12:31.972Z,96334.78
2023-03-06T12:15:18.220Z,96334.72
2023-03-06T12:18:11.043Z,96329.97
2023-03-06T12:20:58.635Z,96329.88
2023-03-06T12:23:48.433Z,96322.13
2023-03-06T12:26:33.581Z,96321.38
2023-03-06T12:29:19.725Z,96311.50
2023-03-06T12:32:05.770Z,96310.75
2023-03-06T12:34:49.363Z,96312.28
2023-03-06T12:37:27.040Z,96305.34
2023-03-06T12:40:18.577Z,96294.06
2023-03-06T12:43:09.083Z,96300.47
2023-03-06T12:45:38.035Z,96290.75
2023-03-06T12:48:14.701Z,96293.97
2023-03-06T12:50:43.159Z,96279.69
2023-03-06T12:53:26.057Z,96281.09
2023-03-06T12:55:57.177Z,96279.69
2023-03-06T12:58:47.069Z,96277.69
2023-03-06T13:01:48.302Z,96274.91
2023-03-06T13:04:35.059Z,96273.81
2023-03-06T13:07:22.089Z,96271.94
2023-03-06T13:10:13.308Z,96269.66
2023-03-06T13:12:54.386Z,96265.44
2023-03-06T13:15:38.094Z,96260.44
2023-03-06T13:18:56.264Z,96265.47
2023-03-06T13:21:43.460Z,96255.97
2023-03-06T13:24:17.229Z,96250.28
2023-03-06T13:26:53.860Z,96248.38
2023-03-06T13:30:01.021Z,96249.16
2023-03-06T13:32:32.506Z,96248.34
2023-03-06T13:35:00.670Z,96247.72
2023-03-06T13:37:47.233Z,96249.31
2023-03-06T13:40:32.485Z,96253.66
2023-03-06T13:43:18.783Z,96245.59
2023-03-06T13:45:48.359Z,96237.88
2023-03-06T13:48:43.537Z,96239.09
2023-03-06T13:51:24.436Z,96241.94
2023-03-06T13:54:20.120Z,96230.63
2023-03-06T13:57:23.321Z,96226.50
2023-03-06T14:00:34.919Z,96224.47
2023-03-06T14:03:41.456Z,96223.22
2023-03-06T14:06:42.550Z,96225.72
2023-03-06T14:09:24.094Z,96220.78
2023-03-06T14:11:56.623Z,96222.38
2023-03-06T14:14:34.336Z,96222.94
2023-03-06T14:17:05.300Z,96226.66
2023-03-06T14:19:37.965Z,96228.63
2023-03-06T14:22:13.234Z,96223.16
2023-03-06T14:24:51.815Z,96218.50
2023-03-06T14:27:19.994Z,96214.28
2023-03-06T14:29:47.635Z,96223.25
2023-03-06T14:32:22.259Z,96217.16
2023-03-06T14:34:50.368Z,96209.97
2023-03-06T14:37:23.450Z,96208.44
2023-03-06T14:39:52.233Z,96205.63
2023-03-06T14:42:21.993Z,96207.69
2023-03-06T14:45:00.988Z,96206.09
2023-03-06T14:47:32.009Z,96193.00
2023-03-06T14:50:20.183Z,96198.16
2023-03-06T14:52:48.313Z,96192.44
2023-03-06T14:55:19.361Z,96185.63
2023-03-06T14:57:51.930Z,96187.38
2023-03-06T15:00:24.336Z,96189.22
2023-03-06T15:02:55.688Z,96186.03
2023-03-06T15:05:28.259Z,96184.66
2023-03-06T15:08:01.962Z,96185.41
2023-03-06T15:10:31.721Z,96184.41
2023-03-06T15:13:09.376Z,96176.50
2023-03-06T15:15:37.024Z,96179.31
2023-03-06T15:18:27.465Z,96183.38
2023-03-06T15:21:07.127Z,96182.56
2023-03-06T15:23:37.386Z,96185.19
2023-03-06T15:26:23.461Z,96181.28
2023-03-06T15:29:09.054Z,96177.22
2023-03-06T15:31:39.274Z,96177.00
2023-03-06T15:34:20.675Z,96180.25
2023-03-06T15:36:50.244Z,96178.31
2023-03-06T15:39:30.726Z,96178.88
2023-03-06T15:41:59.912Z,96178.22
2023-03-06T15:44:31.517Z,96168.53
2023-03-06T15:47:08.403Z,96177.00
2023-03-06T15:49:39.267Z,96175.00
2023-03-06T15:52:07.783Z,96170.69
2023-03-06T15:54:36.399Z,96176.66
2023-03-06T15:57:07.171Z,96179.19
2023-03-06T15:59:43.115Z,96179.41
2023-03-06T16:02:15.497Z,96174.25
2023-03-06T16:04:45.571Z,96175.78
2023-03-06T16:07:13.670Z,96177.78
2023-03-06T16:09:42.411Z,96187.09
2023-03-06T16:12:17.619Z,96178.81
2023-03-06T16:14:45.843Z,96188.47
2023-03-06T16:17:14.533Z,96194.59
2023-03-06T16:19:42.166Z,96195.13
2023-03-06T16:22:11.899Z,96190.31
2023-03-06T16:24:39.473Z,96188.63
2023-03-06T16:27:07.184Z,96192.16
2023-03-06T16:29:35.159Z,96193.13
2023-03-06T16:32:03.345Z,96195.72
2023-03-06T16:34:30.948Z,96196.72
2023-03-06T16:36:58.580Z,96200.84
2023-03-06T16:39:27.575Z,96206.81
2023-03-06T16:41:55.505Z,96204.75
2023-03-06T16:44:23.050Z,96209.53
2023-03-06T16:46:50.736Z,96204.13
2023-03-06T16:49:20.575Z,96211.38
2023-03-06T16:51:48.716Z,96217.97
2023-03-06T16:54:16.501Z,96223.72
2023-03-06T16:56:45.940Z,96222.22
2023-03-06T16:59:13.635Z,96225.50
2023-03-06T17:01:42.011Z,96221.34
2023-03-06T17:04:09.694Z,96222.22
2023-03-06T17:06:38.318Z,96229.28
2023-03-06T17:09:05.943Z,96219.06
2023-03-06T17:11:35.656Z,96228.13
2023-03-06T17:14:04.967Z,96242.13
2023-03-06T17:16:32.579Z,96241.16
2023-03-06T17:19:00.494Z,96242.69
2023-03-06T17:21:28.537Z,96248.94
2023-03-06T17:23:56.748Z,96247.06
2023-03-06T17:26:25.635Z,96256.66
2023-03-06T17:29:06.919Z,96261.25
2023-03-06T17:31:44.214Z,96267.34
2023-03-06T17:34:23.603Z,96269.25
2023-03-06T17:37:09.337Z,96274.97
2023-03-06T17:39:39.162Z,96278.41
2023-03-06T17:42:07.346Z,96282.19
2023-03-06T17:44:38.128Z,96285.25
2023-03-06T17:47:06.079Z,96285.63
2023-03-06T17:49:33.679Z,96291.34
2023-03-06T17:52:01.299Z,96299.34
2023-03-06T17:54:31.228Z,96301.59
2023-03-06T17:57:00.269Z,96302.41
2023-03-06T17:59:28.035Z,96311.91
2023-03-06T18:01:57.666Z,96314.13
2023-03-06T18:04:25.898Z,96306.94
2023-03-06T18:06:53.649Z,96303.16
2023-03-06T18:09:21.240Z,96311.50
2023-03-06T18:11:48.839Z,96319.88
2023-03-06T18:14:16.502Z,96314.53
2023-03-06T18:16:44.203Z,96325.22
2023-03-06T18:19:13.224Z,96326.38
2023-03-06T18:21:40.815Z,96321.34
2023-03-06T18:24:09.877Z,96329.03
2023-03-06T18:26:37.428Z,96346.91
2023-03-06T18:29:05.052Z,96337.38
2023-03-06T18:31:35.078Z,96336.25
2023-03-06T18:34:05.044Z,96338.09
2023-03-06T18:36:34.788Z,96341.94
2023-03-06T18:39:03.744Z,96348.00
2023-03-06T18:41:31.771Z,96352.53
2023-03-06T18:44:01.252Z,96352.53
2023-03-06T18:46:31.204Z,96346.84
2023-03-06T18:48:59.028Z,96360.81
2023-03-06T18:51:27.526Z,96368.44
2023-03-06T18:53:58.224Z,96370.25
2023-03-06T18:56:26.207Z,96369.59
2023-03-06T18:58:53.920Z,96381.00
2023-03-06T19:01:21.849Z,96382.84
2023-03-06T19:03:49.729Z,96379.88
2023-03-06T19:06:18.152Z,96377.25
2023-03-06T19:08:45.706Z,96381.44
2023-03-06T19:11:16.887Z,96381.66
2023-03-06T19:13:45.085Z,96381.16
2023-03-06T19:16:17.953Z,96379.94
2023-03-06T19:18:45.611Z,96383.94
2023-03-06T19:21:15.926Z,96383.84
2023-03-06T19:23:43.453Z,96388.81
2023-03-06T19:26:12.335Z,96397.59
2023-03-06T19:28:42.478Z,96405.50
2023-03-06T19:31:11.977Z,96403.81
2023-03-06T19:33:40.887Z,96410.88
2023-03-06T19:36:12.043Z,96415.09
2023-03-06T19:38:40.918Z,96420.22
2023-03-06T19:41:11.900Z,96424.31
2023-03-06T19:43:41.980Z,96425.50
2023-03-06T19:46:12.282Z,96423.59
2023-03-06T19:48:40.534Z,96420.38
2023-03-06T19:51:08.951Z,96426.63
2023-03-06T19:53:36.607Z,96419.88
2023-03-06T19:56:05.601Z,96428.97
2023-03-06T19:58:33.499Z,96431.84
2023-03-06T20:01:08.213Z,96431.25
2023-03-06T20:03:36.465Z,96440.34
2023-03-06T20:06:04.646Z,96434.13
2023-03-06T20:08:32.637Z,96436.25
2023-03-06T20:11:00.217Z,96442.16
2023-03-06T20:13:27.871Z,96442.94
2023-03-06T20:15:56.083Z,96445.94
2023-03-06T20:18:25.071Z,96442.81
2023-03-06T20:21:00.322Z,96437.09
2023-03-06T20:23:28.604Z,96442.94
2023-03-06T20:25:56.522Z,96449.06
2023-03-06T20:28:24.037Z,96447.06
2023-03-06T20:30:51.744Z,96448.19
2023-03-06T20:33:19.728Z,96450.84
2023-03-06T20:35:48.689Z,96446.03
2023-03-06T20:38:16.394Z,96454.28
2023-03-06T20:40:44.135Z,96446.53
2023-03-06T20:43:11.802Z,96449.09
2023-03-06T20:45:39.330Z,96447.69
2023-03-06T20:48:07.003Z,96446.19
2023-03-06T20:50:34.571Z,96442.31
2023-03-06T20:53:03.832Z,96441.38
2023-03-06T20:55:31.512Z,96439.97
2023-03-06T20:57:59.185Z,96446.91
2023-03-06T21:00:26.849Z,96444.56
2023-03-06T21:02:54.488Z,96442.97
2023-03-06T21:05:22.233Z,96436.06
2023-03-06T21:07:51.827Z,96441.69
2023-03-06T21:10:20.885Z,96446.84
2023-03-06T21:12:48.492Z,96442.44
2023-03-06T21:15:16.284Z,96447.75
2023-03-06T21:17:43.871Z,96447.53
2023-03-06T21:20:11.873Z,96439.50
2023-03-06T21:22:39.563Z,96444.63
2023-03-06T21:25:07.572Z,96439.41
2023-03-06T21:27:36.455Z,96442.41
2023-03-06T21:30:05.310Z,96443.78
2023-03-06T21:32:33.455Z,96441.31
2023-03-06T21:35:01.084Z,96442.56
2023-03-06T21:37:28.716Z,96438.97
2023-03-06T21:39:59.021Z,96432.69
2023-03-06T21:42:27.020Z,96438.78
2023-03-06T21:44:55.937Z,96435.34
2023-03-06T21:47:23.547Z,96435.38
2023-03-06T21:49:51.107Z,96428.72
2023-03-06T21:52:18.631Z,96429.22
2023-03-06T21:54:48.622Z,96418.69
2023-03-06T21:57:16.152Z,96419.66
2023-03-06T21:59:43.761Z,96417.88
2023-03-06T22:02:12.706Z,96419.06
2023-03-06T22:04:40.263Z,96417.31
2023-03-06T22:07:07.946Z,96419.91
2023-03-06T22:09:35.898Z,96418.63
2023-03-06T22:12:04.163Z,96412.91
2023-03-06T22:14:31.829Z,96414.13
2023-03-06T22:16:59.445Z,96408.78
2023-03-06T22:19:28.460Z,96413.13
2023-03-06T22:21:56.104Z,96413.56
2023-03-06T22:24:23.736Z,96411.25
2023-03-06T22:26:51.277Z,96411.63
2023-03-06T22:29:18.870Z,96417.69
2023-03-06T22:31:46.473Z,96422.53
2023-03-06T22:34:14.000Z,96412.09
2023-03-06T22:36:42.946Z,96408.22
2023-03-06T22:39:12.989Z,96417.09
2023-03-06T22:41:41.471Z,96413.41
2023-03-06T22:44:15.896Z,96413.41
2023-03-06T22:46:43.939Z,96408.59
2023-03-06T22:49:13.069Z,96416.25
2023-03-06T22:51:40.876Z,96406.94
2023-03-06T22:54:10.984Z,96413.28
2023-03-06T22:56:38.674Z,96414.19
2023-03-06T22:59:06.264Z,96410.16
2023-03-06T23:01:34.711Z,96410.88
2023-03-06T23:04:04.411Z,96405.28
2023-03-06T23:06:36.410Z,96401.50
2023-03-06T23:09:06.475Z,96401.19
2023-03-06T23:11:35.479Z,96409.31
2023-03-06T23:14:03.206Z,96404.78
2023-03-06T23:16:31.324Z,96403.84
2023-03-06T23:18:58.998Z,96405.47
2023-03-06T23:21:26.541Z,96407.88
2023-03-06T23:23:54.752Z,96407.19
2023-03-06T23:26:25.204Z,96409.44
2023-03-06T23:28:55.050Z,96406.16
2023-03-06T23:31:25.587Z,96398.03
2023-03-06T23:33:53.128Z,96402.69
2023-03-06T23:36:20.717Z,96398.44
2023-03-06T23:38:48.362Z,96407.28
2023-03-06T23:41:18.571Z,96401.59
2023-03-06T23:43:47.500Z,96394.41
2023-03-06T23:46:16.857Z,96398.56
2023-03-06T23:48:44.741Z,96401.38
2023-03-06T23:51:15.245Z,96396.34
2023-03-06T23:53:44.027Z,96399.91
2023-03-06T23:56:12.312Z,96404.03
2023-03-06T23:58:40.158Z,96393.28
